ANA786 RJFU-RJOO
Flight info
| Callsign | ANA786 |
|---|---|
| Flight time | 0h 50m |
| Altitude | 31000 |
| Route | OOITA Y23 SPIDE Y231 MIRIO Y401 KAINA Y753 IZUMI |
| Aircraft | B738/M-SDE2E3FGHIRWXY/LB1 |
Departure
| Time | 2026-04-24 14:50 |
|---|---|
| Airport | Nagasaki Airport (RJFU) |
Arrival
| Time | 2026-04-24 15:40 |
|---|---|
| Airport | Osaka Itami International Airport (RJOO) |
| Time | Latitude | Longitude | Altitude | Speed | Heading |
|---|---|---|---|---|---|
| 2026-04-24 14:30 | 32.91472 | 129.92086 | 18 ft | 0 kts | 47° |
| 2026-04-24 14:42 | 32.91465 | 129.92076 | 16 ft | 4 kts | 47° |
| 2026-04-24 14:42 | 32.91441 | 129.92044 | 16 ft | 4 kts | 50° |
| 2026-04-24 14:42 | 32.91424 | 129.92019 | 16 ft | 4 kts | 53° |
| 2026-04-24 14:42 | 32.91408 | 129.91993 | 16 ft | 4 kts | 58° |
| 2026-04-24 14:43 | 32.91396 | 129.91965 | 18 ft | 4 kts | 76° |
| 2026-04-24 14:43 | 32.91396 | 129.91940 | 18 ft | 2 kts | 135° |
| 2026-04-24 14:43 | 32.91397 | 129.91938 | 18 ft | 0 kts | 138° |
| 2026-04-24 14:47 | 32.91396 | 129.91939 | 18 ft | 1 kts | 138° |
| 2026-04-24 14:47 | 32.91347 | 129.91992 | 15 ft | 12 kts | 137° |
| 2026-04-24 14:47 | 32.91277 | 129.92068 | 11 ft | 15 kts | 137° |
| 2026-04-24 14:47 | 32.91199 | 129.92153 | 11 ft | 15 kts | 137° |
| 2026-04-24 14:48 | 32.91123 | 129.92235 | 12 ft | 15 kts | 140° |
| 2026-04-24 14:48 | 32.91040 | 129.92319 | 12 ft | 16 kts | 138° |
| 2026-04-24 14:48 | 32.90959 | 129.92407 | 12 ft | 15 kts | 137° |
| 2026-04-24 14:48 | 32.90883 | 129.92490 | 13 ft | 15 kts | 137° |
| 2026-04-24 14:49 | 32.90802 | 129.92527 | 15 ft | 12 kts | 194° |
| 2026-04-24 14:49 | 32.90753 | 129.92477 | 16 ft | 7 kts | 228° |
| 2026-04-24 14:49 | 32.90720 | 129.92430 | 16 ft | 8 kts | 233° |
| 2026-04-24 14:49 | 32.90715 | 129.92393 | 17 ft | 4 kts | 312° |
| 2026-04-24 14:50 | 32.90737 | 129.92367 | 14 ft | 5 kts | 315° |
| 2026-04-24 14:50 | 32.90927 | 129.92163 | 13 ft | 93 kts | 318° |
| 2026-04-24 14:50 | 32.91648 | 129.91385 | 262 ft | 175 kts | 320° |
| 2026-04-24 14:50 | 32.92613 | 129.90423 | 1531 ft | 186 kts | 323° |
| 2026-04-24 14:51 | 32.93654 | 129.89399 | 2625 ft | 210 kts | 323° |
| 2026-04-24 14:51 | 32.94825 | 129.88168 | 3120 ft | 239 kts | 320° |
| 2026-04-24 14:51 | 32.96081 | 129.86782 | 3896 ft | 251 kts | 318° |
| 2026-04-24 14:51 | 32.97372 | 129.85337 | 4782 ft | 262 kts | 317° |
| 2026-04-24 14:52 | 32.98748 | 129.83828 | 5692 ft | 274 kts | 318° |
| 2026-04-24 14:52 | 33.00199 | 129.82337 | 6977 ft | 275 kts | 326° |
| 2026-04-24 14:52 | 33.01984 | 129.81505 | 7789 ft | 280 kts | 354° |
| 2026-04-24 14:52 | 33.03896 | 129.81857 | 8017 ft | 283 kts | 25° |
| 2026-04-24 14:53 | 33.05435 | 129.83209 | 8069 ft | 281 kts | 45° |
| 2026-04-24 14:53 | 33.06765 | 129.84939 | 8792 ft | 285 kts | 49° |
| 2026-04-24 14:53 | 33.08072 | 129.86731 | 10027 ft | 289 kts | 49° |
| 2026-04-24 14:53 | 33.09432 | 129.88578 | 10846 ft | 308 kts | 47° |
| 2026-04-24 14:54 | 33.10938 | 129.90592 | 11157 ft | 342 kts | 47° |
| 2026-04-24 14:54 | 33.12564 | 129.92745 | 11986 ft | 353 kts | 48° |
| 2026-04-24 14:54 | 33.13918 | 129.95204 | 13014 ft | 361 kts | 68° |
| 2026-04-24 14:54 | 33.14370 | 129.98158 | 14041 ft | 368 kts | 91° |
| 2026-04-24 14:55 | 33.14126 | 130.00169 | 14611 ft | 373 kts | 106° |
| 2026-04-24 14:55 | 33.12501 | 130.03863 | 15724 ft | 383 kts | 126° |
| 2026-04-24 14:55 | 33.10979 | 130.06464 | 16479 ft | 393 kts | 127° |
| 2026-04-24 14:55 | 33.09403 | 130.09160 | 16929 ft | 398 kts | 127° |
| 2026-04-24 14:56 | 33.07834 | 130.11897 | 17050 ft | 402 kts | 126° |
| 2026-04-24 14:56 | 33.06277 | 130.14657 | 17041 ft | 400 kts | 126° |
| 2026-04-24 14:56 | 33.04729 | 130.17410 | 17047 ft | 400 kts | 126° |
| 2026-04-24 14:56 | 33.03177 | 130.20166 | 17049 ft | 400 kts | 126° |
| 2026-04-24 14:57 | 33.01618 | 130.22927 | 17153 ft | 404 kts | 126° |
| 2026-04-24 14:57 | 33.00031 | 130.25734 | 17883 ft | 412 kts | 127° |
| 2026-04-24 14:57 | 32.98663 | 130.28758 | 18688 ft | 423 kts | 110° |
| 2026-04-24 14:57 | 32.98192 | 130.32193 | 19374 ft | 433 kts | 90° |
| 2026-04-24 14:58 | 32.98607 | 130.35768 | 20016 ft | 440 kts | 76° |
| 2026-04-24 14:58 | 32.99278 | 130.39362 | 20620 ft | 450 kts | 75° |
| 2026-04-24 14:58 | 32.99992 | 130.43030 | 21222 ft | 459 kts | 75° |
| 2026-04-24 14:58 | 33.00704 | 130.46762 | 21914 ft | 465 kts | 75° |
| 2026-04-24 14:59 | 33.01405 | 130.50560 | 22489 ft | 474 kts | 76° |
| 2026-04-24 14:59 | 33.02100 | 130.54439 | 23025 ft | 483 kts | 76° |
| 2026-04-24 14:59 | 33.02796 | 130.58385 | 23606 ft | 490 kts | 76° |
| 2026-04-24 14:59 | 33.03500 | 130.62390 | 24117 ft | 497 kts | 76° |
| 2026-04-24 15:00 | 33.04212 | 130.66437 | 24634 ft | 502 kts | 76° |
| 2026-04-24 15:00 | 33.04932 | 130.70534 | 25156 ft | 508 kts | 77° |
| 2026-04-24 15:00 | 33.05648 | 130.74616 | 25671 ft | 513 kts | 77° |
| 2026-04-24 15:00 | 33.06378 | 130.78806 | 26123 ft | 519 kts | 77° |
| 2026-04-24 15:01 | 33.07115 | 130.83029 | 26784 ft | 520 kts | 78° |
| 2026-04-24 15:01 | 33.07850 | 130.87256 | 27334 ft | 523 kts | 78° |
| 2026-04-24 15:01 | 33.08595 | 130.91537 | 27718 ft | 531 kts | 78° |
| 2026-04-24 15:01 | 33.09350 | 130.95884 | 27984 ft | 540 kts | 78° |
| 2026-04-24 15:02 | 33.10113 | 131.00290 | 28408 ft | 545 kts | 78° |
| 2026-04-24 15:02 | 33.10879 | 131.04730 | 28891 ft | 548 kts | 78° |
| 2026-04-24 15:02 | 33.11649 | 131.09201 | 29314 ft | 553 kts | 79° |
| 2026-04-24 15:02 | 33.12413 | 131.13651 | 29699 ft | 558 kts | 79° |
| 2026-04-24 15:03 | 33.12942 | 131.16734 | 29923 ft | 563 kts | 79° |
| 2026-04-24 15:03 | 33.13985 | 131.22822 | 30394 ft | 568 kts | 79° |
| 2026-04-24 15:03 | 33.14775 | 131.27452 | 30776 ft | 570 kts | 79° |
| 2026-04-24 15:03 | 33.15565 | 131.32096 | 31119 ft | 573 kts | 79° |
| 2026-04-24 15:04 | 33.16359 | 131.36774 | 31384 ft | 578 kts | 79° |
| 2026-04-24 15:04 | 33.17161 | 131.41507 | 31500 ft | 585 kts | 80° |
| 2026-04-24 15:04 | 33.17969 | 131.46284 | 31840 ft | 587 kts | 80° |
| 2026-04-24 15:04 | 33.18775 | 131.51060 | 32353 ft | 585 kts | 80° |
| 2026-04-24 15:05 | 33.19575 | 131.55811 | 32848 ft | 584 kts | 81° |
| 2026-04-24 15:05 | 33.20373 | 131.60568 | 33165 ft | 586 kts | 81° |
| 2026-04-24 15:05 | 33.21164 | 131.65291 | 33449 ft | 590 kts | 81° |
| 2026-04-24 15:05 | 33.21984 | 131.70103 | 33824 ft | 592 kts | 79° |
| 2026-04-24 15:06 | 33.23184 | 131.74812 | 34222 ft | 594 kts | 70° |
| 2026-04-24 15:06 | 33.24716 | 131.79388 | 34581 ft | 594 kts | 67° |
| 2026-04-24 15:06 | 33.26368 | 131.83914 | 34984 ft | 593 kts | 65° |
| 2026-04-24 15:06 | 33.28029 | 131.88404 | 35523 ft | 589 kts | 65° |
| 2026-04-24 15:07 | 33.29650 | 131.92886 | 36013 ft | 586 kts | 66° |
| 2026-04-24 15:07 | 33.31219 | 131.97374 | 36437 ft | 585 kts | 66° |
| 2026-04-24 15:07 | 33.32756 | 132.01887 | 36706 ft | 587 kts | 67° |
| 2026-04-24 15:07 | 33.34280 | 132.06432 | 36915 ft | 591 kts | 67° |
| 2026-04-24 15:08 | 33.35801 | 132.10995 | 37398 ft | 588 kts | 66° |
| 2026-04-24 15:08 | 33.37305 | 132.15520 | 37975 ft | 582 kts | 66° |
| 2026-04-24 15:08 | 33.38780 | 132.19941 | 38473 ft | 578 kts | 66° |
| 2026-04-24 15:08 | 33.40280 | 132.24401 | 38808 ft | 579 kts | 65° |
| 2026-04-24 15:09 | 33.41786 | 132.28875 | 39044 ft | 580 kts | 66° |
| 2026-04-24 15:09 | 33.43287 | 132.33353 | 39286 ft | 581 kts | 66° |
| 2026-04-24 15:09 | 33.44784 | 132.37829 | 39764 ft | 574 kts | 66° |
| 2026-04-24 15:09 | 33.46260 | 132.42244 | 40232 ft | 569 kts | 66° |
| 2026-04-24 15:10 | 33.47723 | 132.46632 | 40622 ft | 566 kts | 67° |
| 2026-04-24 15:10 | 33.49173 | 132.50986 | 41024 ft | 561 kts | 67° |
| 2026-04-24 15:10 | 33.50625 | 132.55328 | 41073 ft | 562 kts | 67° |
| 2026-04-24 15:11 | 33.53538 | 132.64035 | 41098 ft | 562 kts | 67° |
| 2026-04-24 15:11 | 33.56391 | 132.72633 | 41091 ft | 557 kts | 68° |
| 2026-04-24 15:12 | 33.59242 | 132.81257 | 41102 ft | 556 kts | 68° |
| 2026-04-24 15:12 | 33.63510 | 132.94191 | 41095 ft | 555 kts | 68° |
| 2026-04-24 15:13 | 33.65479 | 133.03097 | 41098 ft | 551 kts | 83° |
| 2026-04-24 15:13 | 33.66579 | 133.12181 | 41099 ft | 549 kts | 84° |
| 2026-04-24 15:14 | 33.67671 | 133.21195 | 41102 ft | 550 kts | 83° |
| 2026-04-24 15:14 | 33.68844 | 133.30272 | 41086 ft | 550 kts | 83° |
| 2026-04-24 15:15 | 33.70039 | 133.39342 | 41083 ft | 551 kts | 83° |
| 2026-04-24 15:15 | 33.71219 | 133.48462 | 41062 ft | 554 kts | 83° |
| 2026-04-24 15:16 | 33.72407 | 133.57631 | 41070 ft | 557 kts | 83° |
| 2026-04-24 15:16 | 33.73595 | 133.66767 | 41031 ft | 558 kts | 83° |
| 2026-04-24 15:17 | 33.74785 | 133.75990 | 41075 ft | 560 kts | 83° |
| 2026-04-24 15:17 | 33.75981 | 133.85289 | 40517 ft | 568 kts | 83° |
| 2026-04-24 15:18 | 33.76578 | 133.89967 | 39908 ft | 566 kts | 83° |
| 2026-04-24 15:18 | 33.77174 | 133.94642 | 39272 ft | 565 kts | 83° |
| 2026-04-24 15:18 | 33.77765 | 133.99312 | 38582 ft | 566 kts | 82° |
| 2026-04-24 15:18 | 33.78355 | 134.03990 | 37752 ft | 567 kts | 83° |
| 2026-04-24 15:19 | 33.78939 | 134.08590 | 37017 ft | 564 kts | 81° |
| 2026-04-24 15:19 | 33.79543 | 134.13239 | 36396 ft | 559 kts | 84° |
| 2026-04-24 15:19 | 33.80114 | 134.17857 | 35705 ft | 560 kts | 84° |
| 2026-04-24 15:19 | 33.80786 | 134.22497 | 34837 ft | 566 kts | 78° |
| 2026-04-24 15:20 | 33.81923 | 134.27047 | 33963 ft | 572 kts | 69° |
| 2026-04-24 15:20 | 33.83597 | 134.31406 | 32922 ft | 576 kts | 61° |
| 2026-04-24 15:20 | 33.85454 | 134.35685 | 32022 ft | 577 kts | 59° |
| 2026-04-24 15:20 | 33.87330 | 134.39955 | 31108 ft | 578 kts | 60° |
| 2026-04-24 15:21 | 33.89172 | 134.44244 | 30301 ft | 576 kts | 60° |
| 2026-04-24 15:21 | 33.90299 | 134.46950 | 29710 ft | 574 kts | 62° |
| 2026-04-24 15:21 | 33.92097 | 134.51346 | 28735 ft | 567 kts | 62° |
| 2026-04-24 15:22 | 33.93819 | 134.55541 | 27536 ft | 553 kts | 62° |
| 2026-04-24 15:22 | 33.95523 | 134.59647 | 26249 ft | 542 kts | 60° |
| 2026-04-24 15:22 | 33.97200 | 134.63665 | 25068 ft | 534 kts | 62° |
| 2026-04-24 15:23 | 34.00455 | 134.71509 | 22726 ft | 512 kts | 62° |
| 2026-04-24 15:23 | 34.03486 | 134.78937 | 21594 ft | 502 kts | 63° |
| 2026-04-24 15:23 | 34.05017 | 134.82709 | 20627 ft | 497 kts | 63° |
| 2026-04-24 15:24 | 34.09437 | 134.93624 | 18012 ft | 468 kts | 64° |
| 2026-04-24 15:25 | 34.11769 | 134.99392 | 16276 ft | 445 kts | 64° |
| 2026-04-24 15:25 | 34.14421 | 135.05958 | 14446 ft | 430 kts | 64° |
| 2026-04-24 15:26 | 34.18668 | 135.16501 | 11552 ft | 407 kts | 63° |
| 2026-04-24 15:27 | 34.22173 | 135.23905 | 10666 ft | 341 kts | 47° |
| 2026-04-24 15:27 | 34.27303 | 135.28843 | 10409 ft | 312 kts | 32° |
| 2026-04-24 15:28 | 34.34155 | 135.34374 | 9854 ft | 272 kts | 33° |
| 2026-04-24 15:29 | 34.37327 | 135.36960 | 8929 ft | 276 kts | 33° |
| 2026-04-24 15:30 | 34.42050 | 135.40818 | 7909 ft | 270 kts | 34° |
| 2026-04-24 15:31 | 34.46520 | 135.47681 | 6644 ft | 262 kts | 62° |
| 2026-04-24 15:32 | 34.49977 | 135.55247 | 5611 ft | 244 kts | 61° |
| 2026-04-24 15:33 | 34.53052 | 135.61940 | 5200 ft | 211 kts | 62° |
| 2026-04-24 15:33 | 34.55651 | 135.65367 | 4918 ft | 183 kts | 11° |
| 2026-04-24 15:34 | 34.58146 | 135.65442 | 4566 ft | 177 kts | 2° |
| 2026-04-24 15:35 | 34.61511 | 135.64176 | 4086 ft | 178 kts | 320° |
| 2026-04-24 15:35 | 34.63331 | 135.62099 | 3874 ft | 184 kts | 317° |
| 2026-04-24 15:35 | 34.64238 | 135.61006 | 3648 ft | 183 kts | 317° |
| 2026-04-24 15:36 | 34.65131 | 135.59921 | 3410 ft | 180 kts | 317° |
| 2026-04-24 15:36 | 34.66867 | 135.57804 | 2922 ft | 175 kts | 317° |
| 2026-04-24 15:36 | 34.67724 | 135.56759 | 2691 ft | 174 kts | 318° |
| 2026-04-24 15:37 | 34.68587 | 135.55707 | 2458 ft | 176 kts | 318° |
| 2026-04-24 15:37 | 34.69429 | 135.54679 | 2227 ft | 166 kts | 319° |
| 2026-04-24 15:37 | 34.70215 | 135.53719 | 2019 ft | 155 kts | 319° |
| 2026-04-24 15:37 | 34.70943 | 135.52831 | 1833 ft | 141 kts | 319° |
| 2026-04-24 15:38 | 34.71625 | 135.52002 | 1642 ft | 138 kts | 319° |
| 2026-04-24 15:38 | 34.72301 | 135.51180 | 1447 ft | 135 kts | 319° |
| 2026-04-24 15:38 | 34.72962 | 135.50375 | 1269 ft | 135 kts | 319° |
| 2026-04-24 15:38 | 34.73616 | 135.49578 | 1079 ft | 135 kts | 318° |
| 2026-04-24 15:39 | 34.74279 | 135.48771 | 909 ft | 135 kts | 318° |
| 2026-04-24 15:39 | 34.74926 | 135.47982 | 699 ft | 129 kts | 317° |
| 2026-04-24 15:39 | 34.75547 | 135.47205 | 489 ft | 126 kts | 316° |
| 2026-04-24 15:39 | 34.76157 | 135.46452 | 311 ft | 124 kts | 319° |
| 2026-04-24 15:40 | 34.76763 | 135.45722 | 181 ft | 122 kts | 317° |
| 2026-04-24 15:40 | 34.77361 | 135.44998 | 59 ft | 123 kts | 319° |
| 2026-04-24 15:40 | 34.77893 | 135.44363 | 44 ft | 79 kts | 316° |
| 2026-04-24 15:40 | 34.78157 | 135.44072 | 46 ft | 42 kts | 328° |
| 2026-04-24 15:41 | 34.78384 | 135.43999 | 48 ft | 24 kts | 5° |
| 2026-04-24 15:41 | 34.78506 | 135.44066 | 41 ft | 21 kts | 39° |
| 2026-04-24 15:41 | 34.78581 | 135.44151 | 45 ft | 10 kts | 46° |
| 2026-04-24 15:41 | 34.78630 | 135.44206 | 46 ft | 10 kts | 28° |
| 2026-04-24 15:42 | 34.78692 | 135.44191 | 47 ft | 10 kts | 329° |
| 2026-04-24 15:42 | 34.78733 | 135.44136 | 46 ft | 0 kts | 311° |
| 2026-04-24 15:42 | 34.78737 | 135.44131 | 48 ft | 2 kts | 311° |
| 2026-04-24 15:42 | 34.78743 | 135.44123 | 49 ft | 1 kts | 316° |
| 2026-04-24 15:43 | 34.78758 | 135.44121 | 49 ft | 2 kts | 22° |
| 2026-04-24 15:43 | 34.78770 | 135.44144 | 49 ft | 4 kts | 73° |
| 2026-04-24 15:43 | 34.78780 | 135.44179 | 49 ft | 5 kts | 70° |
| 2026-04-24 15:43 | 34.78797 | 135.44233 | 48 ft | 8 kts | 69° |
| 2026-04-24 15:44 | 34.78816 | 135.44289 | 49 ft | 0 kts | 67° |